Time;durP1;ratioP1;P1;durP2;ratioP2;P2;SDS_P1;SDS_P2;PMS_P1;PMS_P2;Temp;Humidity;BMP_temperature;BMP_pressure;BME280_temperature;BME280_humidity;BME280_pressure;Samples;Min_cycle;Max_cycle;Signal;HPM_P1;HPM_P2
2024/01/16 00:01:45;;;;;;;10.40;5.53;;;4.30;99.90;;;;;;5003837;28;20173;-72
2024/01/16 00:04:11;;;;;;;7.73;4.80;;;4.30;99.90;;;;;;5026235;28;20189;-73
2024/01/16 00:06:43;;;;;;;5.00;4.20;;;4.30;99.90;;;;;;5017309;28;20732;-73
2024/01/16 00:09:12;;;;;;;6.28;4.55;;;4.30;99.90;;;;;;5003757;28;20178;-73
2024/01/16 00:11:41;;;;;;;6.43;4.30;;;4.40;99.90;;;;;;5004830;28;20178;-73
2024/01/16 00:14:07;;;;;;;11.77;5.10;;;4.40;99.90;;;;;;5012215;28;20177;-73
2024/01/16 00:16:33;;;;;;;6.03;4.00;;;4.40;99.90;;;;;;5025618;28;20198;-74
2024/01/16 00:18:58;;;;;;;6.10;5.50;;;4.40;99.90;;;;;;5010415;28;20589;-74
2024/01/16 00:21:24;;;;;;;9.60;5.80;;;4.40;99.90;;;;;;5006324;28;20171;-74
2024/01/16 00:23:50;;;;;;;11.57;5.27;;;4.50;99.90;;;;;;5021797;28;20706;-74
2024/01/16 00:26:22;;;;;;;6.90;5.17;;;4.40;99.90;;;;;;5029147;28;20675;-74
2024/01/16 00:28:48;;;;;;;6.95;4.85;;;4.40;99.90;;;;;;5029026;28;20247;-74
2024/01/16 00:31:14;;;;;;;6.83;4.83;;;4.40;99.90;;;;;;5029239;28;20169;-74
2024/01/16 00:33:40;;;;;;;7.15;5.70;;;4.40;99.90;;;;;;5012173;28;20174;-74
2024/01/16 00:36:06;;;;;;;9.27;5.37;;;4.40;99.90;;;;;;5012699;28;20174;-74
2024/01/16 00:38:35;;;;;;;8.27;5.07;;;4.40;99.90;;;;;;5000974;28;20289;-74
2024/01/16 00:41:00;;;;;;;8.43;4.90;;;4.30;99.90;;;;;;5000991;28;20585;-74
2024/01/16 00:43:26;;;;;;;7.47;5.07;;;4.30;99.90;;;;;;5017031;28;20178;-74
2024/01/16 00:45:52;;;;;;;6.50;4.40;;;4.30;99.90;;;;;;5012320;28;20635;-74
2024/01/16 00:48:19;;;;;;;5.70;4.57;;;4.30;99.90;;;;;;5028596;28;20185;-74
2024/01/16 00:50:46;;;;;;;7.82;5.30;;;4.40;99.90;;;;;;4996094;28;20229;-74
2024/01/16 00:53:12;;;;;;;6.78;5.55;;;4.30;99.90;;;;;;5029520;28;20186;-74
2024/01/16 00:55:37;;;;;;;8.93;5.73;;;4.40;99.90;;;;;;5028785;28;20181;-74
2024/01/16 00:58:03;;;;;;;7.80;5.73;;;4.40;99.90;;;;;;5030064;28;20620;-74
2024/01/16 01:00:31;;;;;;;6.90;5.47;;;4.30;99.90;;;;;;5030196;28;20231;-74
2024/01/16 01:02:58;;;;;;;10.10;5.90;;;4.30;99.90;;;;;;5029115;28;21137;-74
2024/01/16 01:05:28;;;;;;;7.43;5.60;;;4.30;99.90;;;;;;5011913;28;20190;-74
2024/01/16 01:07:57;;;;;;;8.35;5.28;;;4.30;99.90;;;;;;5028642;28;20271;-74
2024/01/16 01:10:23;;;;;;;10.95;5.22;;;4.20;99.90;;;;;;5012307;28;20174;-74
2024/01/16 01:12:49;;;;;;;10.98;5.22;;;4.20;99.90;;;;;;5029646;28;20619;-74
2024/01/16 01:15:15;;;;;;;7.47;4.30;;;4.20;99.90;;;;;;5029956;28;20189;-74
2024/01/16 01:17:41;;;;;;;5.77;4.70;;;4.20;99.90;;;;;;5028443;28;20201;-75
2024/01/16 01:20:08;;;;;;;8.13;4.77;;;4.20;99.90;;;;;;5011950;28;20615;-74
2024/01/16 01:22:34;;;;;;;8.98;4.45;;;4.20;99.90;;;;;;5012201;28;20675;-74
2024/01/16 01:25:00;;;;;;;7.80;4.20;;;4.20;99.90;;;;;;5012178;28;20260;-74
2024/01/16 01:27:26;;;;;;;6.03;4.40;;;4.20;99.90;;;;;;5012191;28;20646;-74
2024/01/16 01:29:52;;;;;;;9.70;5.10;;;4.20;99.90;;;;;;5029474;28;20178;-74
2024/01/16 01:32:17;;;;;;;6.87;4.90;;;4.20;99.90;;;;;;5030757;28;20178;-74
2024/01/16 01:34:43;;;;;;;5.40;4.60;;;4.20;99.90;;;;;;5031758;28;20609;-74
2024/01/16 01:37:09;;;;;;;5.40;3.80;;;4.20;99.90;;;;;;5056095;22;20232;-75
2024/01/16 01:39:35;;;;;;;6.93;5.00;;;4.20;99.90;;;;;;4998912;28;20178;-75
2024/01/16 01:42:00;;;;;;;9.10;4.30;;;4.10;99.90;;;;;;5015628;28;20633;-75
2024/01/16 01:44:26;;;;;;;5.67;3.50;;;4.10;99.90;;;;;;5023227;28;20261;-75
2024/01/16 01:46:54;;;;;;;6.03;4.13;;;4.10;99.90;;;;;;5015243;28;20656;-75
2024/01/16 01:49:21;;;;;;;5.95;4.65;;;4.10;99.90;;;;;;5015014;28;20268;-75
2024/01/16 01:51:48;;;;;;;9.32;3.70;;;4.10;99.90;;;;;;5032783;28;20182;-75
2024/01/16 01:54:15;;;;;;;5.55;4.57;;;4.10;99.90;;;;;;5032392;28;20178;-75
2024/01/16 01:56:44;;;;;;;7.85;4.45;;;4.10;99.90;;;;;;5032688;28;20545;-76
2024/01/16 01:59:11;;;;;;;9.65;4.40;;;4.10;99.90;;;;;;4982581;28;20182;-76
2024/01/16 02:01:37;;;;;;;6.28;3.75;;;4.10;99.90;;;;;;5018147;28;20240;-76
2024/01/16 02:04:05;;;;;;;7.60;4.50;;;4.10;99.90;;;;;;5014497;28;20178;-76
2024/01/16 02:06:30;;;;;;;6.20;4.00;;;4.00;99.90;;;;;;5032516;28;20259;-76
2024/01/16 02:08:57;;;;;;;5.70;3.70;;;4.10;99.90;;;;;;4982375;28;20283;-76
2024/01/16 02:11:23;;;;;;;5.95;4.18;;;4.00;99.90;;;;;;5032716;28;20174;-76
2024/01/16 02:13:49;;;;;;;5.53;3.77;;;4.10;99.90;;;;;;5014416;28;20280;-75
2024/01/16 02:16:22;;;;;;;5.63;3.63;;;4.10;99.90;;;;;;5014152;28;20196;-75
2024/01/16 02:18:48;;;;;;;6.80;4.05;;;4.00;99.90;;;;;;5030999;28;20207;-75
2024/01/16 02:21:27;;;;;;;8.20;5.00;;;4.00;99.90;;;;;;5014460;28;20261;-75
2024/01/16 02:23:53;;;;;;;7.07;4.22;;;4.00;99.90;;;;;;5031976;28;20190;-75
2024/01/16 02:26:20;;;;;;;7.20;4.88;;;4.00;99.90;;;;;;4998288;28;20339;-75
2024/01/16 02:28:46;;;;;;;7.05;4.57;;;4.00;99.90;;;;;;5021378;28;20198;-74
2024/01/16 02:31:12;;;;;;;9.07;4.73;;;3.90;99.90;;;;;;5032219;28;20184;-74
2024/01/16 02:33:38;;;;;;;14.73;5.78;;;4.00;99.90;;;;;;4997611;28;21348;-74
2024/01/16 02:36:04;;;;;;;5.40;4.90;;;4.00;99.90;;;;;;5013921;28;20181;-75
2024/01/16 02:38:29;;;;;;;8.63;5.43;;;4.00;99.90;;;;;;5033868;28;20217;-75
2024/01/16 02:40:55;;;;;;;6.40;4.37;;;4.00;99.90;;;;;;5014237;28;20614;-74
2024/01/16 02:43:21;;;;;;;4.60;3.88;;;4.00;99.90;;;;;;5018201;28;20193;-74
2024/01/16 02:45:47;;;;;;;5.63;4.57;;;4.00;99.90;;;;;;4997369;28;20590;-75
2024/01/16 02:48:13;;;;;;;9.43;4.43;;;4.00;99.90;;;;;;5014050;28;20631;-75
2024/01/16 02:50:39;;;;;;;5.50;4.00;;;4.00;99.90;;;;;;5019720;28;20562;-75
2024/01/16 02:53:04;;;;;;;5.27;4.10;;;4.00;99.90;;;;;;5022207;28;20683;-75
2024/01/16 02:55:30;;;;;;;4.50;3.83;;;4.00;99.90;;;;;;5014046;28;20184;-75
2024/01/16 02:57:56;;;;;;;8.93;3.93;;;4.00;99.90;;;;;;5013608;28;20196;-76
2024/01/16 03:00:22;;;;;;;8.17;4.77;;;4.00;99.90;;;;;;5013900;28;20709;-75
2024/01/16 03:02:48;;;;;;;6.30;4.55;;;4.00;99.90;;;;;;5015608;28;20181;-75
2024/01/16 03:05:14;;;;;;;8.75;5.20;;;4.00;99.90;;;;;;5038215;28;20654;-75
2024/01/16 03:07:41;;;;;;;7.25;4.10;;;3.90;99.90;;;;;;5014055;28;20209;-76
2024/01/16 03:10:07;;;;;;;4.50;4.05;;;3.90;99.90;;;;;;5032110;28;20635;-75
2024/01/16 03:12:33;;;;;;;6.07;4.55;;;3.90;99.90;;;;;;4989519;28;20705;-75
2024/01/16 03:14:59;;;;;;;6.53;4.27;;;3.90;99.90;;;;;;5031151;28;20165;-75
2024/01/16 03:17:24;;;;;;;5.53;4.83;;;3.90;99.90;;;;;;5020579;28;20624;-75
2024/01/16 03:19:50;;;;;;;7.53;4.47;;;3.90;99.90;;;;;;5038624;28;20640;-75
2024/01/16 03:22:16;;;;;;;5.60;4.47;;;3.90;99.90;;;;;;5039382;28;20241;-76
2024/01/16 03:24:41;;;;;;;8.47;4.50;;;3.90;99.90;;;;;;5023997;28;20741;-74
2024/01/16 03:27:07;;;;;;;4.93;3.70;;;3.90;99.90;;;;;;5032079;28;20292;-74
2024/01/16 03:29:33;;;;;;;7.37;4.63;;;3.90;99.90;;;;;;5032075;28;20177;-74
2024/01/16 03:32:00;;;;;;;8.23;4.90;;;3.90;99.90;;;;;;5030297;28;20697;-75
2024/01/16 03:34:26;;;;;;;8.57;4.80;;;3.90;99.90;;;;;;4993766;28;20173;-76
2024/01/16 03:36:52;;;;;;;7.40;3.95;;;3.90;99.90;;;;;;5029088;28;20177;-76
2024/01/16 03:39:18;;;;;;;10.80;4.80;;;3.90;99.90;;;;;;5039759;28;20992;-76
2024/01/16 03:41:44;;;;;;;5.60;4.50;;;3.90;99.90;;;;;;5014348;28;20185;-76
2024/01/16 03:44:09;;;;;;;7.90;4.90;;;3.90;99.90;;;;;;5019935;28;20646;-76
2024/01/16 03:46:35;;;;;;;7.03;4.60;;;3.90;99.90;;;;;;4980680;28;20284;-76
2024/01/16 03:49:01;;;;;;;4.97;3.47;;;3.90;99.90;;;;;;5016568;28;20692;-75
2024/01/16 03:51:26;;;;;;;8.70;4.40;;;3.90;99.90;;;;;;5018652;28;20635;-75
2024/01/16 03:53:52;;;;;;;5.90;4.10;;;4.00;99.90;;;;;;5014696;28;20340;-76
2024/01/16 03:56:18;;;;;;;6.60;3.50;;;4.00;99.90;;;;;;4996633;28;20269;-76
2024/01/16 03:58:43;;;;;;;7.33;5.40;;;4.00;99.90;;;;;;5030923;28;21235;-76
2024/01/16 04:01:09;;;;;;;8.37;5.43;;;4.00;99.90;;;;;;5030653;28;20272;-76
2024/01/16 04:03:35;;;;;;;8.77;5.87;;;4.00;99.90;;;;;;5020910;28;20185;-76
2024/01/16 04:06:01;;;;;;;7.80;4.43;;;4.00;99.90;;;;;;5021079;28;20667;-75
2024/01/16 04:08:27;;;;;;;7.10;5.00;;;4.00;99.90;;;;;;5012986;28;20193;-76
2024/01/16 04:10:52;;;;;;;8.53;6.20;;;4.00;99.90;;;;;;5012753;28;20623;-76
2024/01/16 04:13:18;;;;;;;7.33;5.40;;;4.00;99.90;;;;;;5017667;28;20169;-76
2024/01/16 04:15:44;;;;;;;5.83;5.27;;;4.10;99.90;;;;;;5015292;28;20242;-75
2024/01/16 04:18:10;;;;;;;8.83;5.63;;;4.10;99.90;;;;;;5012981;28;20201;-75
2024/01/16 04:20:36;;;;;;;6.35;5.20;;;4.00;99.90;;;;;;5030483;28;20554;-74
2024/01/16 04:23:03;;;;;;;7.63;5.40;;;4.00;99.90;;;;;;5038054;28;20177;-75
2024/01/16 04:25:29;;;;;;;9.95;5.57;;;4.00;99.90;;;;;;5012330;28;20189;-74
2024/01/16 04:27:55;;;;;;;8.55;6.13;;;4.00;99.90;;;;;;5012630;28;20574;-75
2024/01/16 04:30:21;;;;;;;9.97;5.50;;;4.00;99.90;;;;;;5033917;28;20177;-75
2024/01/16 04:32:46;;;;;;;8.80;5.75;;;3.90;99.90;;;;;;5012083;28;20206;-74
2024/01/16 04:35:12;;;;;;;7.43;6.20;;;3.90;99.90;;;;;;5000587;28;20219;-75
2024/01/16 04:37:38;;;;;;;7.10;5.30;;;3.90;99.90;;;;;;5042160;28;20221;-75
2024/01/16 04:40:05;;;;;;;9.70;6.67;;;3.90;99.90;;;;;;5030320;28;20174;-75
2024/01/16 04:42:32;;;;;;;7.00;6.03;;;3.80;99.90;;;;;;5029947;28;20201;-76
2024/01/16 04:44:57;;;;;;;6.78;5.15;;;3.90;99.90;;;;;;5011735;28;20235;-74
2024/01/16 04:47:23;;;;;;;10.67;5.67;;;3.80;99.90;;;;;;5030569;28;20204;-75
2024/01/16 04:49:49;;;;;;;9.27;4.73;;;3.80;99.90;;;;;;5030174;28;20185;-75
2024/01/16 04:52:15;;;;;;;11.73;5.67;;;3.80;99.90;;;;;;5012249;28;20178;-74
2024/01/16 04:54:42;;;;;;;10.20;4.82;;;3.80;99.90;;;;;;5011866;28;20244;-75
2024/01/16 04:57:07;;;;;;;8.33;3.67;;;3.80;99.90;;;;;;5012453;28;20205;-75
2024/01/16 04:59:33;;;;;;;7.20;3.70;;;3.80;99.90;;;;;;5027579;28;20185;-75
2024/01/16 05:02:00;;;;;;;7.15;3.90;;;3.80;99.90;;;;;;5013336;28;20269;-75
2024/01/16 05:04:26;;;;;;;9.45;3.70;;;3.80;99.90;;;;;;5017868;28;20200;-75
2024/01/16 05:06:52;;;;;;;8.80;3.53;;;3.80;99.90;;;;;;5000340;28;20193;-74
2024/01/16 05:09:19;;;;;;;6.43;3.57;;;3.80;99.90;;;;;;5015994;28;20177;-75
2024/01/16 05:11:45;;;;;;;10.27;3.33;;;3.80;99.90;;;;;;5041865;28;20188;-75
2024/01/16 05:14:11;;;;;;;5.43;3.20;;;3.80;99.90;;;;;;5014902;28;20181;-76
2024/01/16 05:16:37;;;;;;;5.57;3.50;;;3.80;99.90;;;;;;5015939;28;20239;-76
2024/01/16 05:19:02;;;;;;;7.07;3.40;;;3.80;99.90;;;;;;5015632;28;20186;-76
2024/01/16 05:21:28;;;;;;;5.80;2.67;;;3.80;99.90;;;;;;5033586;28;20210;-74
2024/01/16 05:23:54;;;;;;;4.97;2.70;;;3.80;99.90;;;;;;5032359;28;20193;-74
2024/01/16 05:26:20;;;;;;;11.43;3.27;;;3.90;99.90;;;;;;5014594;28;20703;-75
2024/01/16 05:28:45;;;;;;;7.60;3.17;;;3.90;99.90;;;;;;5012187;28;20266;-75
2024/01/16 05:31:11;;;;;;;9.57;4.00;;;3.90;99.90;;;;;;5015038;28;20621;-75
2024/01/16 05:33:37;;;;;;;5.37;2.60;;;4.00;99.90;;;;;;5015257;28;20174;-75
2024/01/16 05:36:03;;;;;;;8.10;3.80;;;3.90;99.90;;;;;;5041173;28;20631;-75
2024/01/16 05:38:28;;;;;;;5.30;2.70;;;4.00;99.90;;;;;;5015166;28;20224;-75
2024/01/16 05:40:54;;;;;;;6.63;2.57;;;4.00;99.90;;;;;;5032474;28;20943;-75
2024/01/16 05:43:20;;;;;;;5.93;3.00;;;4.00;99.90;;;;;;5016307;28;20197;-75
2024/01/16 05:45:45;;;;;;;6.77;3.00;;;4.00;99.90;;;;;;5035002;28;20221;-75
2024/01/16 05:48:11;;;;;;;7.80;3.93;;;4.10;99.90;;;;;;5015797;28;20223;-76
2024/01/16 05:50:37;;;;;;;7.63;2.70;;;4.10;99.90;;;;;;5003108;28;20173;-75
2024/01/16 05:53:03;;;;;;;7.97;2.87;;;4.10;99.90;;;;;;5032519;28;20174;-75
2024/01/16 05:55:32;;;;;;;5.30;2.97;;;4.10;99.90;;;;;;5032820;28;20915;-74
2024/01/16 05:57:59;;;;;;;6.35;3.42;;;4.10;99.90;;;;;;5013256;28;21258;-75
2024/01/16 06:00:25;;;;;;;5.22;3.65;;;4.10;99.90;;;;;;5014974;28;20185;-75
2024/01/16 06:02:50;;;;;;;7.00;3.30;;;4.10;99.90;;;;;;5032187;28;20511;-74
2024/01/16 06:05:16;;;;;;;6.50;3.37;;;4.10;99.90;;;;;;5014258;28;20181;-74
2024/01/16 06:07:42;;;;;;;7.33;3.30;;;4.10;99.90;;;;;;5022789;28;20212;-79
2024/01/16 06:10:11;;;;;;;7.40;3.23;;;4.20;99.90;;;;;;5041292;28;20169;-80
2024/01/16 06:12:37;;;;;;;9.20;3.67;;;4.10;99.90;;;;;;5044520;28;20267;-81
2024/01/16 06:15:03;;;;;;;7.63;3.10;;;4.20;99.90;;;;;;5030711;28;20173;-80
2024/01/16 06:17:29;;;;;;;6.23;3.00;;;4.10;99.90;;;;;;5053918;28;20189;-79
2024/01/16 06:19:55;;;;;;;5.47;3.17;;;4.10;99.90;;;;;;5026486;28;20592;-79
2024/01/16 06:22:20;;;;;;;11.00;3.53;;;4.10;99.90;;;;;;5037400;28;20773;-80
2024/01/16 06:24:46;;;;;;;8.17;3.30;;;4.10;99.90;;;;;;5047817;28;20592;-79
2024/01/16 06:27:18;;;;;;;5.20;3.00;;;4.10;99.90;;;;;;5054952;28;20640;-80
2024/01/16 06:29:45;;;;;;;9.80;3.05;;;4.00;99.90;;;;;;5038724;28;20177;-78
2024/01/16 06:32:11;;;;;;;9.18;3.35;;;4.00;99.90;;;;;;5054551;28;20193;-79
2024/01/16 06:34:40;;;;;;;4.43;2.58;;;4.00;99.90;;;;;;5009225;28;20233;-80
2024/01/16 06:37:06;;;;;;;5.22;3.10;;;4.00;99.90;;;;;;5021583;28;20216;-78
2024/01/16 06:39:33;;;;;;;4.30;2.90;;;4.00;99.90;;;;;;5040801;28;20182;-78
2024/01/16 06:41:58;;;;;;;10.50;3.72;;;4.00;99.90;;;;;;5021552;28;20589;-77
2024/01/16 06:44:24;;;;;;;6.47;3.03;;;4.00;99.90;;;;;;5036811;28;20216;-80
2024/01/16 06:46:50;;;;;;;8.33;3.77;;;4.00;99.90;;;;;;5020614;28;20296;-77
2024/01/16 06:49:15;;;;;;;4.50;2.43;;;4.00;99.90;;;;;;5044927;28;20173;-77
2024/01/16 06:51:41;;;;;;;5.87;2.30;;;4.00;99.90;;;;;;5031045;28;20177;-77
2024/01/16 06:54:07;;;;;;;12.60;3.43;;;4.00;99.90;;;;;;5017813;28;21274;-79
2024/01/16 06:56:33;;;;;;;4.10;2.80;;;4.00;99.90;;;;;;5037835;28;20580;-79
2024/01/16 06:58:59;;;;;;;8.43;3.33;;;4.00;99.90;;;;;;5010322;28;20655;-79
2024/01/16 07:01:24;;;;;;;5.47;2.60;;;4.10;99.90;;;;;;5035253;28;20180;-78
2024/01/16 07:03:52;;;;;;;7.90;3.40;;;4.00;99.90;;;;;;5017479;28;20670;-78
2024/01/16 07:06:19;;;;;;;6.00;2.60;;;4.10;99.90;;;;;;5021152;28;20200;-78
2024/01/16 07:08:44;;;;;;;8.27;3.03;;;4.10;99.90;;;;;;5016552;28;20181;-77
2024/01/16 07:11:13;;;;;;;7.50;2.73;;;4.10;99.90;;;;;;5013848;28;20200;-78
2024/01/16 07:13:40;;;;;;;6.30;2.58;;;4.10;99.90;;;;;;5033038;28;20608;-78
2024/01/16 07:16:09;;;;;;;5.28;2.20;;;4.10;99.90;;;;;;5017522;28;20240;-78
2024/01/16 07:18:34;;;;;;;6.47;3.15;;;4.10;99.90;;;;;;5040390;28;20205;-78
2024/01/16 07:21:01;;;;;;;9.17;3.43;;;4.10;99.90;;;;;;5037071;28;20520;-79
2024/01/16 07:23:27;;;;;;;6.10;2.22;;;4.10;99.90;;;;;;5037917;28;20181;-79
2024/01/16 07:25:52;;;;;;;7.43;2.77;;;4.10;99.90;;;;;;5032965;28;20205;-78
2024/01/16 07:28:19;;;;;;;8.10;3.10;;;4.10;99.90;;;;;;5018933;28;20343;-78
2024/01/16 07:30:44;;;;;;;5.47;2.60;;;4.20;99.90;;;;;;5023288;28;20235;-77
2024/01/16 07:33:11;;;;;;;6.70;2.27;;;4.20;99.90;;;;;;5035194;28;20247;-78
2024/01/16 07:35:38;;;;;;;6.13;2.80;;;4.20;99.90;;;;;;5026428;28;20185;-78
2024/01/16 07:38:04;;;;;;;3.70;2.03;;;4.20;99.90;;;;;;5023061;28;20220;-79
2024/01/16 07:40:30;;;;;;;4.70;1.97;;;4.20;99.90;;;;;;5037888;28;20647;-77
2024/01/16 07:42:56;;;;;;;8.60;3.10;;;4.20;99.90;;;;;;5000456;28;20170;-77
2024/01/16 07:45:21;;;;;;;4.60;2.60;;;4.20;99.90;;;;;;4996868;28;21121;-77
2024/01/16 07:47:47;;;;;;;4.63;1.57;;;4.20;99.90;;;;;;4998147;28;20569;-77
2024/01/16 07:50:13;;;;;;;6.70;2.40;;;4.20;99.90;;;;;;5014838;28;20192;-77
2024/01/16 07:52:39;;;;;;;6.47;2.00;;;4.20;99.90;;;;;;5023428;28;20628;-77
2024/01/16 07:55:05;;;;;;;5.70;2.10;;;4.20;99.90;;;;;;5020467;28;20592;-77
2024/01/16 07:57:31;;;;;;;5.60;2.03;;;4.20;99.90;;;;;;5014112;28;20228;-77
2024/01/16 07:59:57;;;;;;;5.33;1.90;;;4.20;99.90;;;;;;5013642;28;20165;-77
2024/01/16 08:02:26;;;;;;;3.60;1.98;;;4.30;99.90;;;;;;5032036;28;20177;-77
2024/01/16 08:04:52;;;;;;;4.38;2.25;;;4.30;99.90;;;;;;5048728;28;20177;-77
2024/01/16 08:07:18;;;;;;;3.45;1.70;;;4.30;99.90;;;;;;5006717;28;20209;-78
2024/01/16 08:09:44;;;;;;;5.50;2.07;;;4.30;99.90;;;;;;5029971;28;20207;-77
2024/01/16 08:12:10;;;;;;;5.30;2.03;;;4.30;99.90;;;;;;5034806;28;20166;-78
2024/01/16 08:14:36;;;;;;;7.57;2.20;;;4.30;99.90;;;;;;5039641;28;20283;-77
2024/01/16 08:17:01;;;;;;;8.00;2.40;;;4.30;99.90;;;;;;5052057;28;20196;-78
2024/01/16 08:19:27;;;;;;;5.50;2.30;;;4.30;99.90;;;;;;5051042;28;20549;-78
2024/01/16 08:21:53;;;;;;;3.67;1.87;;;4.30;99.90;;;;;;5039121;28;20181;-78
2024/01/16 08:24:18;;;;;;;2.90;1.07;;;4.40;99.90;;;;;;5016276;28;20659;-77
2024/01/16 08:26:44;;;;;;;4.10;1.77;;;4.40;99.90;;;;;;5040061;28;20197;-79
2024/01/16 08:29:10;;;;;;;4.90;1.70;;;4.50;99.90;;;;;;5057872;28;20180;-76
2024/01/16 08:31:35;;;;;;;4.93;1.53;;;4.50;99.90;;;;;;5021122;28;20181;-78
2024/01/16 08:34:01;;;;;;;5.40;1.90;;;4.50;99.90;;;;;;5037033;28;20551;-77
2024/01/16 08:36:27;;;;;;;3.83;1.93;;;4.60;99.90;;;;;;5038698;28;20585;-78
2024/01/16 08:38:54;;;;;;;7.87;1.90;;;4.60;99.90;;;;;;5030743;28;20231;-77
2024/01/16 08:41:20;;;;;;;3.47;1.25;;;4.70;99.90;;;;;;5032283;28;20593;-77
2024/01/16 08:43:45;;;;;;;3.70;1.80;;;4.70;99.90;;;;;;5023023;28;20186;-76
2024/01/16 08:46:11;;;;;;;4.03;1.53;;;4.80;99.90;;;;;;5051646;28;20200;-77
2024/01/16 08:48:38;;;;;;;3.10;1.20;;;4.80;99.90;;;;;;5059820;28;20197;-78
2024/01/16 08:51:08;;;;;;;6.50;2.05;;;4.80;99.90;;;;;;5061684;28;20206;-77
2024/01/16 08:53:34;;;;;;;4.93;2.10;;;4.80;99.90;;;;;;5058968;28;20382;-77
2024/01/16 08:56:00;;;;;;;4.93;1.73;;;4.90;99.90;;;;;;5048848;28;20173;-76
2024/01/16 08:58:26;;;;;;;3.63;1.55;;;4.90;99.90;;;;;;5033432;28;20803;-77
2024/01/16 09:00:52;;;;;;;4.60;1.73;;;4.90;99.90;;;;;;5019486;28;20185;-77
2024/01/16 09:03:18;;;;;;;4.53;1.37;;;5.00;99.90;;;;;;5055951;28;20587;-77
2024/01/16 09:05:44;;;;;;;5.97;2.10;;;5.00;99.90;;;;;;5036396;28;20185;-77
2024/01/16 09:08:09;;;;;;;6.20;2.27;;;5.00;99.90;;;;;;5036055;28;20283;-76
2024/01/16 09:10:35;;;;;;;3.73;1.83;;;5.10;99.90;;;;;;5053961;28;20583;-76
2024/01/16 09:13:01;;;;;;;3.40;1.37;;;5.10;99.90;;;;;;5052472;28;20185;-76
2024/01/16 09:15:26;;;;;;;4.73;1.93;;;5.20;99.90;;;;;;5051439;28;20212;-77
2024/01/16 09:17:52;;;;;;;4.70;2.00;;;5.20;99.90;;;;;;5034650;28;20201;-76
2024/01/16 09:20:18;;;;;;;3.83;1.47;;;5.30;99.90;;;;;;5053813;28;20638;-77
2024/01/16 09:22:43;;;;;;;3.23;1.70;;;5.30;99.90;;;;;;5038770;28;20516;-78
2024/01/16 09:25:09;;;;;;;2.30;1.53;;;5.40;99.90;;;;;;5037896;28;20192;-77
2024/01/16 09:27:35;;;;;;;6.30;1.93;;;5.40;99.90;;;;;;5010274;28;20232;-77
2024/01/16 09:30:00;;;;;;;2.80;1.37;;;5.50;99.90;;;;;;5011165;28;20236;-77
2024/01/16 09:32:26;;;;;;;6.00;1.80;;;5.50;99.90;;;;;;5024874;28;20243;-78
2024/01/16 09:34:52;;;;;;;3.83;1.20;;;5.50;99.90;;;;;;5036867;28;20178;-79
2024/01/16 09:37:18;;;;;;;6.00;1.40;;;5.50;99.90;;;;;;5011110;28;20216;-79
2024/01/16 09:39:44;;;;;;;4.82;1.70;;;5.50;99.90;;;;;;5053682;28;20189;-79
2024/01/16 09:42:10;;;;;;;3.00;1.40;;;5.50;99.90;;;;;;5070019;28;20169;-79
2024/01/16 09:44:35;;;;;;;6.63;1.50;;;5.50;99.90;;;;;;5059416;28;20184;-80
2024/01/16 09:47:03;;;;;;;5.60;1.30;;;5.50;99.90;;;;;;5032748;28;21073;-80
2024/01/16 09:49:29;;;;;;;7.03;1.85;;;5.50;99.90;;;;;;5036146;28;20629;-79
2024/01/16 09:51:55;;;;;;;3.28;2.03;;;5.50;99.90;;;;;;5049274;28;20162;-79
2024/01/16 09:54:21;;;;;;;3.50;1.50;;;5.60;99.90;;;;;;5038162;28;20327;-81
2024/01/16 09:56:51;;;;;;;8.40;1.85;;;5.60;99.90;;;;;;5048265;28;20191;-80
2024/01/16 09:59:21;;;;;;;5.20;2.30;;;5.60;99.90;;;;;;5015247;28;20166;-79
2024/01/16 10:01:49;;;;;;;5.90;2.47;;;5.70;99.90;;;;;;5010085;28;20182;-80
2024/01/16 10:04:21;;;;;;;7.22;1.95;;;5.70;99.90;;;;;;5037930;28;20190;-80
2024/01/16 10:06:49;;;;;;;4.32;1.52;;;5.70;99.90;;;;;;5030897;28;20200;-78
2024/01/16 10:09:15;;;;;;;8.15;2.20;;;5.80;99.90;;;;;;5016877;28;20174;-78
2024/01/16 10:11:42;;;;;;;4.47;2.25;;;5.80;99.90;;;;;;5043332;28;20177;-79
2024/01/16 10:14:08;;;;;;;6.25;1.80;;;5.90;99.90;;;;;;5039824;28;20709;-78
2024/01/16 10:17:02;;;;;;;4.25;1.50;;;5.90;99.90;;;;;;5016316;28;20193;-78
2024/01/16 10:19:29;;;;;;;5.55;2.20;;;6.00;99.90;;;;;;5022153;28;20169;-79
2024/01/16 10:22:03;;;;;;;7.57;2.17;;;6.10;99.90;;;;;;5033893;28;20178;-78
2024/01/16 10:24:30;;;;;;;3.17;1.45;;;6.20;99.90;;;;;;5017547;28;20591;-79
2024/01/16 10:27:00;;;;;;;5.20;2.28;;;6.20;99.90;;;;;;5036345;28;20233;-79
2024/01/16 10:29:27;;;;;;;5.13;1.75;;;6.30;99.90;;;;;;5009563;28;20169;-79
2024/01/16 10:31:52;;;;;;;7.18;1.70;;;6.40;99.90;;;;;;5019674;28;20537;-80
2024/01/16 10:34:22;;;;;;;7.20;2.70;;;6.50;99.90;;;;;;5027732;28;20178;-79
2024/01/16 10:36:52;;;;;;;5.70;1.55;;;6.60;99.90;;;;;;5035798;28;20186;-79
2024/01/16 10:39:18;;;;;;;6.60;1.98;;;6.70;99.90;;;;;;5002801;28;20217;-79
2024/01/16 10:41:59;;;;;;;3.20;1.20;;;6.80;99.90;;;;;;5018382;28;20185;-79
2024/01/16 10:44:27;;;;;;;3.67;1.33;;;6.80;99.90;;;;;;5032255;28;20590;-79
2024/01/16 10:47:11;;;;;;;3.80;2.20;;;6.90;99.90;;;;;;5022037;28;20229;-79
2024/01/16 10:49:38;;;;;;;5.32;1.45;;;6.90;99.90;;;;;;5003771;28;20173;-79
2024/01/16 10:52:09;;;;;;;3.25;1.30;;;6.90;99.90;;;;;;5017680;28;20219;-78
2024/01/16 10:54:37;;;;;;;4.57;1.20;;;6.90;99.90;;;;;;5038924;28;20166;-79
2024/01/16 10:57:04;;;;;;;5.78;1.85;;;6.80;99.90;;;;;;5016284;28;20194;-78
2024/01/16 10:59:37;;;;;;;4.25;2.00;;;6.70;99.90;;;;;;5014364;28;20173;-78
2024/01/16 11:02:09;;;;;;;6.30;1.83;;;6.70;99.90;;;;;;4997761;28;20205;-77
2024/01/16 11:04:37;;;;;;;3.25;1.20;;;6.50;99.90;;;;;;5023748;28;20188;-79
2024/01/16 11:07:04;;;;;;;5.40;1.50;;;6.50;99.90;;;;;;5034630;28;20209;-81
2024/01/16 11:09:31;;;;;;;4.13;1.60;;;6.40;99.90;;;;;;5052359;28;20177;-79
2024/01/16 11:11:58;;;;;;;4.90;1.88;;;6.40;99.90;;;;;;5042268;28;20167;-79
2024/01/16 11:14:25;;;;;;;6.80;2.53;;;6.30;99.90;;;;;;5011475;28;20177;-80
2024/01/16 11:16:53;;;;;;;7.60;2.42;;;6.30;99.90;;;;;;5029965;28;20177;-79
2024/01/16 11:19:20;;;;;;;5.75;2.10;;;6.20;99.90;;;;;;5036455;28;20185;-79
2024/01/16 11:21:46;;;;;;;6.90;1.95;;;6.20;99.90;;;;;;5056432;28;20165;-80
2024/01/16 11:24:13;;;;;;;3.10;1.60;;;6.20;99.90;;;;;;5053646;28;20556;-79
2024/01/16 11:26:41;;;;;;;8.68;2.50;;;6.20;99.90;;;;;;5047301;28;20200;-79
2024/01/16 11:29:26;;;;;;;7.65;1.50;;;6.10;99.90;;;;;;5034870;28;20181;-80
2024/01/16 11:31:51;;;;;;;8.55;2.13;;;6.10;99.90;;;;;;5046957;28;20694;-79
2024/01/16 11:34:40;;;;;;;5.27;2.03;;;6.10;99.90;;;;;;5024326;28;20284;-79
2024/01/16 11:37:12;;;;;;;4.15;1.80;;;6.10;99.90;;;;;;5034824;28;20221;-79
2024/01/16 11:39:38;;;;;;;4.97;2.00;;;6.10;99.90;;;;;;5013694;28;20182;-79
2024/01/16 11:42:04;;;;;;;6.70;2.30;;;6.00;99.90;;;;;;5014952;28;20232;-79
2024/01/16 11:44:54;;;;;;;2.55;1.63;;;6.00;99.90;;;;;;4997398;28;20635;-79
2024/01/16 11:47:21;;;;;;;7.03;2.10;;;6.00;99.90;;;;;;5034042;28;20213;-78
2024/01/16 11:49:48;;;;;;;3.35;1.50;;;6.00;99.90;;;;;;5025145;28;20269;-79
2024/01/16 11:52:15;;;;;;;6.30;2.10;;;6.00;99.90;;;;;;5019532;28;20178;-79
2024/01/16 11:54:42;;;;;;;4.90;1.85;;;6.00;99.90;;;;;;5015078;28;20277;-79
2024/01/16 11:57:36;;;;;;;6.00;2.03;;;6.00;99.90;;;;;;5006817;28;20292;-79
2024/01/16 12:00:12;;;;;;;7.30;2.85;;;6.00;99.90;;;;;;5012393;28;20623;-78
2024/01/16 12:02:56;;;;;;;4.45;2.17;;;6.00;99.90;;;;;;5024058;28;20197;-78
2024/01/16 12:05:22;;;;;;;6.05;2.00;;;5.90;99.90;;;;;;5015251;28;20244;-79
2024/01/16 12:07:52;;;;;;;5.82;2.00;;;5.90;99.90;;;;;;5025517;28;20240;-78
2024/01/16 12:10:27;;;;;;;5.07;2.40;;;5.80;99.90;;;;;;5040521;28;20169;-79
2024/01/16 12:12:59;;;;;;;7.80;1.80;;;5.80;99.90;;;;;;5030343;28;20177;-79
2024/01/16 12:15:26;;;;;;;5.28;1.95;;;5.80;99.90;;;;;;5025650;28;20180;-79
2024/01/16 12:18:00;;;;;;;6.40;1.85;;;5.70;99.90;;;;;;5038773;28;20189;-79
2024/01/16 12:20:29;;;;;;;2.88;1.40;;;5.80;99.90;;;;;;5026270;28;20173;-79
2024/01/16 12:22:55;;;;;;;2.47;1.35;;;5.80;99.90;;;;;;5029944;28;20189;-79
2024/01/16 12:25:24;;;;;;;2.85;1.75;;;5.90;99.90;;;;;;5036396;28;20213;-79
2024/01/16 12:28:02;;;;;;;6.20;3.00;;;5.90;99.90;;;;;;5034799;28;20213;-79
2024/01/16 12:30:31;;;;;;;8.10;2.72;;;6.00;99.90;;;;;;5047914;28;20181;-78
2024/01/16 12:33:06;;;;;;;4.57;2.53;;;6.10;99.90;;;;;;5023669;28;20174;-78
2024/01/16 12:35:36;;;;;;;8.27;3.15;;;6.10;99.90;;;;;;5034237;28;20173;-79
2024/01/16 12:38:03;;;;;;;4.95;2.47;;;6.10;99.90;;;;;;5006113;28;20204;-79
2024/01/16 12:40:29;;;;;;;7.47;2.40;;;6.20;99.90;;;;;;5008323;28;20209;-78
2024/01/16 12:42:55;;;;;;;2.65;1.60;;;6.20;99.90;;;;;;5028152;28;20192;-78
2024/01/16 12:45:22;;;;;;;4.90;2.05;;;6.30;99.90;;;;;;5014653;28;20257;-78
2024/01/16 12:47:57;;;;;;;3.30;1.77;;;6.30;99.90;;;;;;4988098;28;20324;-78
2024/01/16 12:50:27;;;;;;;7.50;2.88;;;6.30;99.90;;;;;;5030287;28;20242;-79
2024/01/16 12:53:06;;;;;;;6.22;1.90;;;6.30;99.90;;;;;;4995865;28;20188;-79
2024/01/16 12:55:39;;;;;;;3.92;2.10;;;6.30;99.90;;;;;;5003901;28;20188;-79